Time;durP1;ratioP1;P1;durP2;ratioP2;P2;SDS_P1;SDS_P2;PMS_P1;PMS_P2;Temp;Humidity;BMP_temperature;BMP_pressure;BME280_temperature;BME280_humidity;BME280_pressure;Samples;Min_cycle;Max_cycle;Signal;HPM_P1;HPM_P2
2021/04/14 00:00:34;;;;;;;0.57;0.57;;;;;;;7.13;100.00;100875.06;1793639;79;21138;-48
2021/04/14 00:03:02;;;;;;;0.47;0.23;;;;;;;7.13;100.00;100877.23;1779313;80;21170;-48
2021/04/14 00:05:35;;;;;;;6.92;0.45;;;;;;;7.15;100.00;100871.02;1759457;81;21408;-48
2021/04/14 00:08:05;;;;;;;1.40;1.30;;;;;;;7.16;100.00;100868.59;1763983;81;21128;-50
2021/04/14 00:10:34;;;;;;;1.22;1.12;;;;;;;7.18;100.00;100870.52;1769539;80;21167;-49
2021/04/14 00:13:04;;;;;;;2.10;1.90;;;;;;;7.18;100.00;100872.43;1769558;81;21508;-49
2021/04/14 00:15:36;;;;;;;1.05;0.37;;;;;;;7.18;100.00;100880.04;1769354;81;21505;-49
2021/04/14 00:18:05;;;;;;;3.22;0.30;;;;;;;7.19;100.00;100873.52;1801968;79;21175;-49
2021/04/14 00:20:34;;;;;;;1.22;0.45;;;;;;;7.17;100.00;100877.05;1810150;79;21166;-49
2021/04/14 00:23:03;;;;;;;1.45;1.32;;;;;;;7.17;100.00;100879.77;1794892;79;21134;-49
2021/04/14 00:25:33;;;;;;;3.27;2.62;;;;;;;7.15;100.00;100875.11;1794839;79;21143;-48
2021/04/14 00:28:03;;;;;;;2.60;2.40;;;;;;;7.15;100.00;100877.00;1795027;79;21122;-49
2021/04/14 00:30:30;;;;;;;3.35;2.00;;;;;;;7.13;100.00;100877.23;1794754;79;21486;-49
2021/04/14 00:32:58;;;;;;;0.50;0.50;;;;;;;7.10;100.00;100878.55;1792834;79;21600;-49
2021/04/14 00:35:26;;;;;;;0.10;0.10;;;;;;;7.08;99.98;100877.97;1771280;80;21123;-50
2021/04/14 00:37:54;;;;;;;1.80;0.95;;;;;;;7.06;99.90;100879.28;1788452;78;21159;-49
2021/04/14 00:40:33;;;;;;;2.25;1.42;;;;;;;7.02;99.65;100872.69;1806434;79;21107;-49
2021/04/14 00:43:00;;;;;;;1.00;1.00;;;;;;;6.98;99.31;100876.98;1809979;79;21107;-49
2021/04/14 00:45:28;;;;;;;0.40;0.40;;;;;;;6.91;99.24;100881.74;1810707;79;21538;-48
2021/04/14 00:47:56;;;;;;;1.15;1.05;;;;;;;6.82;99.08;100882.12;1810599;79;21139;-48
2021/04/14 00:50:26;;;;;;;0.57;0.57;;;;;;;6.76;99.01;100886.36;1810558;79;21124;-49
2021/04/14 00:52:54;;;;;;;1.75;0.53;;;;;;;6.68;98.92;100882.15;1773473;80;21481;-48
2021/04/14 00:55:24;;;;;;;0.50;0.50;;;;;;;6.60;98.72;100883.88;1788787;79;21111;-47
2021/04/14 00:57:52;;;;;;;0.33;0.30;;;;;;;6.51;98.61;100877.20;1788783;79;21174;-50
2021/04/14 01:00:35;;;;;;;0.30;0.30;;;;;;;6.40;98.61;100880.23;1788729;79;21123;-50
2021/04/14 01:03:04;;;;;;;0.30;0.30;;;;;;;6.31;98.75;100879.80;1771763;80;21119;-48
2021/04/14 01:05:35;;;;;;;0.35;0.35;;;;;;;6.24;98.88;100877.22;1787720;79;21125;-49
2021/04/14 01:08:05;;;;;;;1.40;1.30;;;;;;;6.18;98.97;100877.34;1755249;81;21146;-49
2021/04/14 01:10:33;;;;;;;0.50;0.50;;;;;;;6.11;99.16;100866.64;1761390;81;21142;-49
2021/04/14 01:13:01;;;;;;;0.15;0.15;;;;;;;6.05;99.16;100866.77;1768027;81;21110;-49
2021/04/14 01:15:33;;;;;;;0.53;0.53;;;;;;;5.97;99.22;100867.42;1768768;81;21123;-49
2021/04/14 01:18:03;;;;;;;1.22;0.45;;;;;;;5.91;99.19;100870.22;1815710;78;21154;-48
2021/04/14 01:20:35;;;;;;;0.68;0.68;;;;;;;5.82;99.24;100864.34;1815933;78;21403;-49
2021/04/14 01:23:04;;;;;;;2.27;1.45;;;;;;;5.75;99.45;100868.53;1812450;79;21146;-50
2021/04/14 01:25:35;;;;;;;0.10;0.10;;;;;;;5.67;99.61;100864.02;1802869;79;21231;-49
2021/04/14 01:28:06;;;;;;;0.45;0.37;;;;;;;5.59;99.81;100860.59;1802621;79;25995;-50
2021/04/14 01:30:35;;;;;;;0.10;0.10;;;;;;;5.55;99.98;100876.21;1802742;79;21133;-47
2021/04/14 01:33:03;;;;;;;1.65;1.07;;;;;;;5.48;100.00;100879.03;1802467;79;21107;-49
2021/04/14 01:35:32;;;;;;;0.25;0.25;;;;;;;5.39;99.83;100883.17;1802693;79;21159;-49
2021/04/14 01:37:59;;;;;;;0.47;0.47;;;;;;;5.26;99.53;100886.08;1814414;78;21434;-50
2021/04/14 01:40:27;;;;;;;0.30;0.30;;;;;;;5.11;99.52;100883.81;1801639;79;21106;-50
2021/04/14 01:42:55;;;;;;;0.80;0.80;;;;;;;5.01;99.60;100890.33;1801468;79;21134;-49
2021/04/14 01:45:27;;;;;;;1.02;0.90;;;;;;;4.90;99.67;100881.13;1768358;81;21125;-48
2021/04/14 01:47:54;;;;;;;1.90;0.85;;;;;;;4.81;99.78;100882.50;1827430;78;21114;-48
2021/04/14 01:50:22;;;;;;;0.53;0.53;;;;;;;4.72;100.00;100886.91;1799821;78;21131;-48
2021/04/14 01:52:51;;;;;;;0.75;0.68;;;;;;;4.67;100.00;100892.18;1827511;78;21149;-48
2021/04/14 01:55:18;;;;;;;0.55;0.33;;;;;;;4.61;100.00;100885.50;1827702;78;21106;-49
2021/04/14 01:57:47;;;;;;;0.53;0.53;;;;;;;4.58;100.00;100881.90;1827478;78;21137;-49
2021/04/14 02:00:23;;;;;;;0.68;0.68;;;;;;;4.54;100.00;100880.16;1814534;77;21102;-48
2021/04/14 02:02:50;;;;;;;1.45;0.93;;;;;;;4.51;100.00;100875.22;1848456;77;21511;-49
2021/04/14 02:05:21;;;;;;;0.17;0.17;;;;;;;4.48;100.00;100865.67;1827524;77;21121;-48
2021/04/14 02:07:50;;;;;;;0.68;0.57;;;;;;;4.45;100.00;100862.08;1837728;77;21098;-48
2021/04/14 02:10:17;;;;;;;0.40;0.40;;;;;;;4.41;100.00;100860.05;1827127;78;21195;-50
2021/04/14 02:12:45;;;;;;;0.30;0.30;;;;;;;4.40;100.00;100857.03;1827158;78;21176;-49
2021/04/14 02:15:17;;;;;;;1.20;1.12;;;;;;;4.37;100.00;100860.20;1801885;79;21201;-47
2021/04/14 02:17:45;;;;;;;1.75;0.90;;;;;;;4.31;100.00;100864.13;1801081;79;21050;-49
2021/04/14 02:20:13;;;;;;;0.25;0.25;;;;;;;4.25;100.00;100869.10;1827187;78;21136;-47
2021/04/14 02:22:41;;;;;;;0.03;0.03;;;;;;;4.17;100.00;100866.69;1802161;79;21122;-49
2021/04/14 02:25:11;;;;;;;0.88;0.55;;;;;;;4.09;100.00;100869.70;1802399;79;21087;-47
2021/04/14 02:27:38;;;;;;;0.70;0.37;;;;;;;3.98;100.00;100874.00;1802286;79;21169;-47
2021/04/14 02:30:15;;;;;;;0.25;0.25;;;;;;;3.90;100.00;100870.22;1827510;78;21145;-49
2021/04/14 02:32:43;;;;;;;0.30;0.28;;;;;;;3.81;100.00;100869.70;1827134;78;21105;-49
2021/04/14 02:35:11;;;;;;;1.32;1.12;;;;;;;3.72;100.00;100873.74;1827328;78;21103;-50
2021/04/14 02:37:38;;;;;;;0.30;0.30;;;;;;;3.66;100.00;100873.30;1826851;77;21130;-49
2021/04/14 02:40:08;;;;;;;0.20;0.20;;;;;;;3.61;100.00;100870.41;1824398;77;21134;-48
2021/04/14 02:42:37;;;;;;;0.13;0.13;;;;;;;3.58;100.00;100868.16;1824387;78;21469;-47
2021/04/14 02:45:06;;;;;;;0.20;0.20;;;;;;;3.57;100.00;100867.87;1824426;77;21573;-47
2021/04/14 02:47:34;;;;;;;0.93;0.93;;;;;;;3.53;100.00;100858.55;1801944;79;21221;-49
2021/04/14 02:50:03;;;;;;;0.62;0.62;;;;;;;3.50;100.00;100857.65;1824462;78;21131;-48
2021/04/14 02:52:31;;;;;;;0.60;0.60;;;;;;;3.47;100.00;100855.41;1792266;78;21284;-48
2021/04/14 02:54:59;;;;;;;0.62;0.62;;;;;;;3.44;100.00;100852.09;1824215;78;21541;-47
2021/04/14 02:57:26;;;;;;;0.05;0.05;;;;;;;3.41;100.00;100852.54;1823976;78;21123;-48
2021/04/14 02:59:54;;;;;;;0.50;0.50;;;;;;;3.36;100.00;100856.44;1823936;78;21118;-48
2021/04/14 03:02:23;;;;;;;0.10;0.10;;;;;;;3.33;100.00;100860.09;1762774;81;21126;-47
2021/04/14 03:04:51;;;;;;;1.98;1.50;;;;;;;3.27;100.00;100851.00;1824126;78;21605;-49
2021/04/14 03:07:18;;;;;;;0.17;0.17;;;;;;;3.23;100.00;100840.33;1824138;78;21540;-46
2021/04/14 03:09:46;;;;;;;0.60;0.60;;;;;;;3.20;100.00;100849.70;1824270;78;21434;-48
2021/04/14 03:12:14;;;;;;;0.55;0.40;;;;;;;3.17;100.00;100841.23;1823916;78;21525;-47
2021/04/14 03:14:45;;;;;;;0.40;0.40;;;;;;;3.13;100.00;100846.75;1823967;78;21127;-47
2021/04/14 03:17:11;;;;;;;0.15;0.15;;;;;;;3.09;100.00;100843.69;1823913;78;21040;-47
2021/04/14 03:19:39;;;;;;;0.42;0.42;;;;;;;3.04;100.00;100840.78;1762828;81;21143;-46
2021/04/14 03:22:07;;;;;;;0.35;0.35;;;;;;;2.99;100.00;100846.87;1830028;78;21153;-47
2021/04/14 03:24:34;;;;;;;0.00;0.00;;;;;;;2.91;100.00;100848.47;1829893;78;21094;-46
2021/04/14 03:27:04;;;;;;;0.82;0.20;;;;;;;2.82;100.00;100849.80;1829591;78;21488;-46
2021/04/14 03:29:31;;;;;;;0.33;0.33;;;;;;;2.76;100.00;100852.01;1829896;78;21177;-47
2021/04/14 03:31:59;;;;;;;0.13;0.13;;;;;;;2.71;100.00;100849.96;1828487;78;21665;-48
2021/04/14 03:34:26;;;;;;;0.80;0.80;;;;;;;2.69;100.00;100851.22;1819585;76;21519;-46
2021/04/14 03:36:53;;;;;;;0.25;0.25;;;;;;;2.67;100.00;100856.00;1813032;78;21159;-47
2021/04/14 03:39:20;;;;;;;0.40;0.40;;;;;;;2.69;100.00;100857.97;1809457;79;21127;-46
2021/04/14 03:41:48;;;;;;;0.00;0.00;;;;;;;2.70;100.00;100856.94;1760178;81;21159;-47
2021/04/14 03:44:15;;;;;;;0.20;0.20;;;;;;;2.72;100.00;100853.48;1756841;79;21139;-46
2021/04/14 03:46:43;;;;;;;0.05;0.05;;;;;;;2.75;100.00;100853.06;1809629;79;21108;-46
2021/04/14 03:49:11;;;;;;;0.68;0.68;;;;;;;2.77;100.00;100848.28;1809539;79;21129;-46
2021/04/14 03:51:39;;;;;;;1.40;0.65;;;;;;;2.79;100.00;100848.87;1809659;79;21092;-46
2021/04/14 03:54:06;;;;;;;0.60;0.60;;;;;;;2.78;100.00;100852.62;1809623;79;21142;-46
2021/04/14 03:56:52;;;;;;;0.17;0.17;;;;;;;2.80;100.00;100850.54;1760236;81;21565;-48
2021/04/14 03:59:19;;;;;;;0.47;0.47;;;;;;;2.84;100.00;100857.13;1760197;81;21122;-47
2021/04/14 04:01:47;;;;;;;0.23;0.23;;;;;;;2.89;100.00;100854.61;1809659;79;21122;-47
2021/04/14 04:04:14;;;;;;;0.20;0.20;;;;;;;2.96;100.00;100860.78;1809486;79;21108;-48
2021/04/14 04:06:42;;;;;;;0.10;0.10;;;;;;;3.03;100.00;100850.48;1809371;79;21450;-48
2021/04/14 04:09:10;;;;;;;1.02;1.02;;;;;;;3.11;100.00;100851.55;1809025;79;21163;-48
2021/04/14 04:11:37;;;;;;;1.10;0.85;;;;;;;3.19;100.00;100856.66;1809487;79;21166;-48
2021/04/14 04:14:05;;;;;;;2.05;0.60;;;;;;;3.27;100.00;100851.00;1770803;81;21229;-47
2021/04/14 04:16:34;;;;;;;5.83;1.17;;;;;;;3.35;100.00;100857.47;1771161;81;21509;-48
2021/04/14 04:19:02;;;;;;;1.22;1.17;;;;;;;3.45;100.00;100859.66;1771033;81;21543;-47
2021/04/14 04:21:29;;;;;;;1.20;1.12;;;;;;;3.56;100.00;100861.65;1761584;81;21233;-48
2021/04/14 04:23:58;;;;;;;2.42;2.25;;;;;;;3.67;100.00;100856.02;1792898;80;21181;-49
2021/04/14 04:26:26;;;;;;;2.87;2.67;;;;;;;3.80;100.00;100855.88;1809723;79;21095;-47
2021/04/14 04:28:54;;;;;;;1.65;1.22;;;;;;;3.93;100.00;100856.27;1809661;79;21557;-48
2021/04/14 04:31:22;;;;;;;2.98;2.52;;;;;;;4.07;100.00;100862.34;1809790;79;21131;-46
2021/04/14 04:33:49;;;;;;;2.33;2.12;;;;;;;4.22;100.00;100856.54;1809477;79;21246;-47
2021/04/14 04:36:17;;;;;;;1.40;1.40;;;;;;;4.37;100.00;100861.02;1809514;79;21196;-49
2021/04/14 04:38:44;;;;;;;5.10;2.72;;;;;;;4.54;100.00;100855.80;1809343;79;21146;-48
2021/04/14 04:41:12;;;;;;;2.37;2.27;;;;;;;4.75;100.00;100855.83;1809552;79;21072;-47
2021/04/14 04:43:42;;;;;;;2.75;2.60;;;;;;;4.95;100.00;100863.66;1782300;79;21142;-48
2021/04/14 04:46:09;;;;;;;2.60;2.30;;;;;;;5.18;100.00;100865.04;1809582;79;21439;-49
2021/04/14 04:48:36;;;;;;;3.58;3.25;;;;;;;5.41;100.00;100859.88;1809518;79;21119;-47
2021/04/14 04:51:04;;;;;;;0.80;0.80;;;;;;;5.61;100.00;100867.12;1729563;81;21159;-50
2021/04/14 04:53:32;;;;;;;1.67;1.57;;;;;;;5.84;100.00;100868.19;1755319;81;21151;-48
2021/04/14 04:56:00;;;;;;;3.67;2.22;;;;;;;6.06;100.00;100862.97;1730477;82;21119;-48
2021/04/14 04:58:28;;;;;;;1.02;1.02;;;;;;;6.26;100.00;100867.48;1760737;81;21685;-47
2021/04/14 05:00:55;;;;;;;5.47;2.92;;;;;;;6.43;100.00;100868.38;1729200;82;21135;-48
2021/04/14 05:03:26;;;;;;;0.65;0.62;;;;;;;6.62;100.00;100869.53;1752418;81;21166;-47
2021/04/14 05:05:56;;;;;;;0.55;0.55;;;;;;;6.80;100.00;100863.91;1752424;81;21130;-49
2021/04/14 05:08:24;;;;;;;2.00;1.70;;;;;;;6.99;100.00;100865.03;1752648;81;21183;-48
2021/04/14 05:10:53;;;;;;;4.10;2.10;;;;;;;7.18;100.00;100865.09;1730810;82;20972;-48
2021/04/14 05:13:20;;;;;;;1.57;1.47;;;;;;;7.36;100.00;100867.27;1760771;81;21190;-49
2021/04/14 05:15:50;;;;;;;0.70;0.70;;;;;;;7.50;100.00;100864.52;1752563;81;21562;-49
2021/04/14 05:18:17;;;;;;;1.32;1.25;;;;;;;7.66;100.00;100863.64;1730633;82;21190;-48
2021/04/14 05:20:47;;;;;;;0.93;0.47;;;;;;;7.81;100.00;100866.30;1760915;81;21189;-49
2021/04/14 05:23:14;;;;;;;0.53;0.47;;;;;;;7.95;100.00;100862.97;1728827;82;21175;-48
2021/04/14 05:25:45;;;;;;;1.02;1.02;;;;;;;8.08;100.00;100863.13;1737516;80;21145;-48
2021/04/14 05:28:15;;;;;;;0.68;0.68;;;;;;;8.21;100.00;100859.75;1765566;80;21124;-50
2021/04/14 05:30:42;;;;;;;1.77;0.85;;;;;;;8.33;98.38;100863.16;1759530;80;21145;-49
2021/04/14 05:33:11;;;;;;;0.35;0.35;;;;;;;8.44;97.44;100855.44;1775271;80;21123;-50
2021/04/14 05:35:38;;;;;;;0.78;0.70;;;;;;;8.59;96.73;100854.78;1762496;80;21135;-49
2021/04/14 05:38:06;;;;;;;2.12;1.02;;;;;;;8.74;93.94;100856.84;1791965;79;21152;-48
2021/04/14 05:40:34;;;;;;;3.08;1.27;;;;;;;8.87;92.45;100850.97;1792663;79;21127;-48
2021/04/14 05:43:18;;;;;;;0.68;0.68;;;;;;;8.97;90.29;100852.42;1738541;79;21486;-47
2021/04/14 05:45:46;;;;;;;3.30;0.50;;;;;;;9.11;89.81;100846.56;1796394;78;21147;-49
2021/04/14 05:48:14;;;;;;;1.52;0.62;;;;;;;9.28;88.63;100852.70;1802666;79;21161;-48
2021/04/14 05:50:44;;;;;;;0.55;0.55;;;;;;;9.44;87.75;100848.98;1796653;78;21131;-49
2021/04/14 05:53:11;;;;;;;1.10;0.90;;;;;;;9.60;84.81;100844.47;1730118;81;21159;-48
2021/04/14 05:55:39;;;;;;;0.93;0.93;;;;;;;9.76;84.05;100842.64;1757998;80;21520;-48
2021/04/14 05:58:07;;;;;;;2.45;0.90;;;;;;;9.90;82.07;100847.09;1767333;79;21146;-48
2021/04/14 06:00:34;;;;;;;0.60;0.60;;;;;;;9.99;80.04;100844.14;1762727;80;21129;-49
2021/04/14 06:03:02;;;;;;;6.30;2.67;;;;;;;10.13;80.50;100852.65;1759483;80;21202;-49
2021/04/14 06:05:30;;;;;;;0.55;0.55;;;;;;;10.26;80.42;100846.72;1765382;81;21107;-49
2021/04/14 06:07:59;;;;;;;1.17;0.62;;;;;;;10.40;79.68;100843.50;1787538;80;21143;-49
2021/04/14 06:10:27;;;;;;;1.85;0.62;;;;;;;10.54;77.07;100848.73;1763428;80;21842;-48
2021/04/14 06:12:57;;;;;;;1.65;1.55;;;;;;;10.66;76.37;100857.52;1795886;79;21154;-51
2021/04/14 06:15:29;;;;;;;3.60;2.58;;;;;;;10.78;75.41;100852.33;1774838;80;21127;-50
2021/04/14 06:17:57;;;;;;;0.62;0.62;;;;;;;10.90;74.41;100847.42;1764543;81;21109;-49
2021/04/14 06:20:25;;;;;;;1.15;1.07;;;;;;;11.03;74.66;100845.54;1768888;81;21153;-48
2021/04/14 06:22:53;;;;;;;1.15;0.95;;;;;;;11.14;74.49;100840.33;1768519;81;21564;-49
2021/04/14 06:25:21;;;;;;;1.60;1.37;;;;;;;11.29;73.97;100838.69;1768903;81;21127;-50
2021/04/14 06:28:01;;;;;;;1.12;1.10;;;;;;;11.45;73.37;100839.48;1768925;81;21121;-50
2021/04/14 06:30:26;;;;;;;1.72;1.07;;;;;;;11.60;72.75;100836.75;1767894;81;21146;-51
2021/04/14 06:32:53;;;;;;;1.32;1.07;;;;;;;11.75;71.81;100840.81;1768092;81;21196;-49
2021/04/14 06:35:22;;;;;;;0.62;0.62;;;;;;;11.88;71.07;100831.22;1768795;79;21151;-50
2021/04/14 06:37:50;;;;;;;0.60;0.60;;;;;;;12.02;70.39;100832.27;1768596;81;21126;-49
2021/04/14 06:43:26;;;;;;;0.60;0.60;;;;;;;12.34;68.15;100835.16;1887524;76;22858;-48
2021/04/14 06:45:55;;;;;;;3.42;1.70;;;;;;;12.44;67.03;100826.06;1783904;79;21205;-49
2021/04/14 06:48:30;;;;;;;1.12;0.95;;;;;;;12.64;65.25;100830.59;1783255;80;21198;-49
2021/04/14 06:51:05;;;;;;;1.10;1.00;;;;;;;12.83;63.73;100831.57;1781225;80;21162;-48
2021/04/14 06:53:57;;;;;;;1.10;1.02;;;;;;;13.02;63.27;100828.12;1771598;80;21184;-49
2021/04/14 06:56:25;;;;;;;0.60;0.60;;;;;;;13.19;62.19;100824.98;1799316;79;21114;-50
2021/04/14 06:59:02;;;;;;;1.70;1.02;;;;;;;13.38;61.51;100826.47;1793028;79;21243;-49
2021/04/14 07:01:35;;;;;;;2.35;1.02;;;;;;;13.48;61.08;100825.02;1759495;81;21154;-49
2021/04/14 07:04:23;;;;;;;1.57;1.47;;;;;;;13.62;59.90;100815.53;1789393;79;21677;-49
2021/04/14 07:06:52;;;;;;;0.98;0.60;;;;;;;13.73;58.42;100819.25;1785196;80;21144;-49
2021/04/14 07:09:34;;;;;;;3.65;0.85;;;;;;;13.80;56.41;100820.81;1787909;78;21178;-49
2021/04/14 07:12:07;;;;;;;0.78;0.40;;;;;;;13.82;56.38;100815.86;1769763;79;21134;-50
2021/04/14 07:14:35;;;;;;;1.25;1.02;;;;;;;13.85;56.95;100820.79;1749600;82;21555;-50
2021/04/14 07:17:18;;;;;;;0.85;0.82;;;;;;;13.93;55.88;100814.64;1760430;81;21441;-48
2021/04/14 07:20:09;;;;;;;1.22;1.12;;;;;;;14.03;57.28;100814.52;1753331;79;21170;-49
2021/04/14 07:22:44;;;;;;;0.78;0.78;;;;;;;14.18;55.68;100817.06;1764270;80;21175;-48
2021/04/14 07:25:38;;;;;;;1.65;0.80;;;;;;;14.36;55.74;100815.44;1756307;80;21367;-49
2021/04/14 07:28:45;;;;;;;;;;;;;;;14.48;55.39;100808.14;1752910;80;21115;-51
2021/04/14 07:31:41;;;;;;;1.50;1.35;;;;;;;14.54;55.42;100812.50;1763416;81;20533;-50
2021/04/14 07:34:22;;;;;;;0.80;0.53;;;;;;;14.66;54.41;100808.47;1762001;80;22003;-49
2021/04/14 07:37:07;;;;;;;1.90;0.85;;;;;;;14.62;53.25;100806.31;1754816;80;21142;-49
2021/04/14 07:39:47;;;;;;;2.98;1.45;;;;;;;14.56;52.88;100795.15;1737333;80;21128;-49
2021/04/14 07:42:34;;;;;;;0.42;0.42;;;;;;;14.66;54.68;100796.09;1738884;80;21132;-50
2021/04/14 07:45:31;;;;;;;0.98;0.82;;;;;;;14.85;55.52;100795.52;1772569;80;21204;-50
2021/04/14 07:48:08;;;;;;;1.60;1.32;;;;;;;15.03;55.73;100801.56;1774474;80;21099;-49
2021/04/14 07:50:42;;;;;;;3.02;1.85;;;;;;;15.18;55.58;100798.27;1766933;79;21106;-49
2021/04/14 07:53:22;;;;;;;1.75;1.65;;;;;;;15.36;54.14;100789.15;1768787;79;21147;-49
2021/04/14 07:56:10;;;;;;;1.90;1.20;;;;;;;15.47;54.16;100789.20;1771494;79;21146;-50
2021/04/14 07:58:38;;;;;;;1.32;0.82;;;;;;;15.62;54.07;100790.84;1769597;79;21169;-50
2021/04/14 08:01:18;;;;;;;0.42;0.42;;;;;;;15.77;52.00;100787.01;1733572;81;21126;-49
2021/04/14 08:03:46;;;;;;;2.47;0.93;;;;;;;15.83;52.34;100773.40;1766794;80;21192;-50
2021/04/14 08:06:17;;;;;;;1.20;0.82;;;;;;;15.93;52.44;100771.56;1780521;79;21161;-50
2021/04/14 08:08:47;;;;;;;0.55;0.55;;;;;;;16.01;51.17;100769.45;1790409;78;21247;-50
2021/04/14 08:11:30;;;;;;;0.53;0.37;;;;;;;16.11;50.20;100767.28;1783703;79;21188;-50
2021/04/14 08:14:18;;;;;;;0.23;0.23;;;;;;;16.20;51.47;100763.82;1755985;80;21136;-50
2021/04/14 08:16:53;;;;;;;0.50;0.50;;;;;;;16.29;51.50;100764.70;1753259;81;21154;-50
2021/04/14 08:19:33;;;;;;;0.28;0.28;;;;;;;16.37;49.96;100757.62;1790414;80;21547;-49
2021/04/14 08:22:15;;;;;;;5.47;1.65;;;;;;;16.39;49.49;100746.53;1796214;78;21141;-50
2021/04/14 08:25:01;;;;;;;0.53;0.28;;;;;;;16.43;48.48;100756.40;1785167;78;22068;-50
2021/04/14 08:27:38;;;;;;;0.30;0.30;;;;;;;16.48;47.92;100748.81;1788552;80;21137;-50
2021/04/14 08:30:20;;;;;;;0.37;0.37;;;;;;;16.55;47.38;100742.88;1790783;80;21498;-50
2021/04/14 08:33:03;;;;;;;0.20;0.20;;;;;;;16.57;45.97;100739.24;1751679;79;21106;-49
2021/04/14 08:35:42;;;;;;;0.42;0.42;;;;;;;16.56;46.19;100726.56;1788990;80;21135;-49
2021/04/14 08:38:13;;;;;;;1.40;0.25;;;;;;;16.70;46.03;100732.03;1756103;81;21594;-49
2021/04/14 08:40:52;;;;;;;0.30;0.30;;;;;;;16.76;46.05;100719.18;1782169;78;21122;-49
2021/04/14 08:43:43;;;;;;;0.95;0.85;;;;;;;16.88;46.67;100724.70;1781880;80;21123;-49
2021/04/14 08:46:14;;;;;;;0.65;0.55;;;;;;;17.00;46.92;100718.04;1781602;80;21190;-50
2021/04/14 08:48:46;;;;;;;0.50;0.40;;;;;;;17.13;44.79;100719.89;1785927;80;21174;-49
2021/04/14 08:51:14;;;;;;;0.55;0.23;;;;;;;17.20;46.22;100713.92;1779827;80;27466;-50
2021/04/14 08:53:44;;;;;;;2.45;0.40;;;;;;;17.28;45.60;100713.71;1762262;80;21213;-52
2021/04/14 08:56:12;;;;;;;0.40;0.40;;;;;;;17.32;45.73;100711.95;1748588;80;20973;-49
2021/04/14 08:58:40;;;;;;;0.25;0.25;;;;;;;17.37;43.63;100692.47;1779870;80;21174;-49
2021/04/14 09:01:11;;;;;;;1.60;0.65;;;;;;;17.37;44.39;100693.28;1783013;80;21126;-50
2021/04/14 09:03:40;;;;;;;0.82;0.47;;;;;;;17.39;44.47;100697.12;1782932;80;21020;-49
2021/04/14 09:06:10;;;;;;;0.50;0.50;;;;;;;17.41;44.11;100697.62;1763904;80;21143;-50
2021/04/14 09:08:42;;;;;;;0.30;0.30;;;;;;;17.43;44.48;100691.75;1778382;79;21537;-50
2021/04/14 09:11:26;;;;;;;0.42;0.42;;;;;;;17.44;44.05;100696.97;1745444;80;21479;-49
2021/04/14 09:14:04;;;;;;;0.75;0.37;;;;;;;17.43;43.18;100697.28;1790906;79;21190;-50
2021/04/14 09:16:52;;;;;;;0.10;0.10;;;;;;;17.57;43.76;100687.73;1788973;78;21158;-50
2021/04/14 09:19:33;;;;;;;0.20;0.20;;;;;;;17.68;43.42;100687.44;1782629;80;21556;-50
2021/04/14 09:22:15;;;;;;;0.17;0.15;;;;;;;17.80;43.85;100689.05;1784139;79;21569;-50
2021/04/14 09:25:05;;;;;;;0.57;0.57;;;;;;;17.93;42.95;100692.25;1772311;80;21481;-48
2021/04/14 09:27:43;;;;;;;1.47;1.37;;;;;;;17.98;46.45;100687.95;1768307;80;21969;-49
2021/04/14 09:30:29;;;;;;;1.40;0.90;;;;;;;17.91;47.57;100686.80;1761365;80;21143;-50
2021/04/14 09:33:11;;;;;;;2.52;1.80;;;;;;;17.79;48.22;100687.39;1748606;81;21123;-50
2021/04/14 09:35:55;;;;;;;1.20;0.72;;;;;;;17.39;49.13;100677.78;1750774;81;21165;-50
2021/04/14 09:38:38;;;;;;;1.47;1.37;;;;;;;16.86;49.96;100682.80;1776250;78;21524;-50
2021/04/14 09:41:13;;;;;;;0.60;0.60;;;;;;;16.27;51.93;100678.17;1765647;80;21167;-50
2021/04/14 09:43:51;;;;;;;0.90;0.78;;;;;;;15.95;52.93;100668.70;1886873;76;22826;-49
2021/04/14 09:46:32;;;;;;;0.90;0.82;;;;;;;15.73;53.86;100670.30;1849068;77;21530;-50
2021/04/14 09:49:14;;;;;;;1.10;0.45;;;;;;;15.57;53.95;100670.33;1783902;80;22158;-50
2021/04/14 09:51:45;;;;;;;0.98;0.80;;;;;;;15.44;54.45;100675.53;1784039;80;21230;-50
2021/04/14 09:54:18;;;;;;;0.95;0.85;;;;;;;15.27;55.20;100675.33;1763005;80;21128;-48
2021/04/14 09:56:49;;;;;;;0.45;0.45;;;;;;;15.15;55.07;100681.90;1743036;81;27801;-49
2021/04/14 09:59:36;;;;;;;3.70;1.22;;;;;;;14.92;55.87;100675.45;1776136;80;21475;-47
2021/04/14 10:02:13;;;;;;;1.87;1.32;;;;;;;14.77;57.04;100675.17;1780024;80;21166;-44
2021/04/14 10:04:41;;;;;;;3.45;1.25;;;;;;;14.63;57.83;100661.38;1784934;80;21652;-44
2021/04/14 10:07:32;;;;;;;1.47;1.37;;;;;;;14.56;58.57;100663.16;1748128;79;21165;-44
2021/04/14 10:10:09;;;;;;;8.73;1.35;;;;;;;14.57;58.96;100659.27;1756604;80;21141;-45
2021/04/14 10:12:36;;;;;;;1.25;1.25;;;;;;;14.70;58.38;100664.55;1784675;78;21139;-43
2021/04/14 10:15:07;;;;;;;1.50;0.68;;;;;;;14.75;57.44;100671.33;1784303;79;21562;-41
2021/04/14 10:17:36;;;;;;;3.47;2.08;;;;;;;14.71;56.69;100661.23;1760374;79;21550;-46
2021/04/14 10:20:18;;;;;;;2.90;2.02;;;;;;;14.60;56.96;100659.23;1781612;79;21560;-45
2021/04/14 10:22:49;;;;;;;5.65;1.35;;;;;;;14.51;57.21;100656.30;1766899;80;21111;-45
2021/04/14 10:25:25;;;;;;;4.60;2.05;;;;;;;14.38;57.12;100661.20;1790303;79;21127;-46
2021/04/14 10:28:03;;;;;;;3.87;1.40;;;;;;;14.22;57.65;100662.55;1763547;79;21143;-45
2021/04/14 10:30:34;;;;;;;1.32;1.22;;;;;;;14.09;58.22;100669.06;1762701;79;21159;-46
2021/04/14 10:33:07;;;;;;;1.98;1.77;;;;;;;14.06;58.70;100663.36;1767984;80;21131;-46
2021/04/14 10:35:35;;;;;;;1.67;1.57;;;;;;;14.05;58.68;100665.86;1754099;81;27609;-46
2021/04/14 10:38:05;;;;;;;1.95;1.35;;;;;;;14.08;58.41;100665.25;1728411;81;21573;-46
2021/04/14 10:40:35;;;;;;;0.60;0.60;;;;;;;14.09;58.75;100658.06;1782986;79;21586;-44
2021/04/14 10:43:19;;;;;;;3.80;1.10;;;;;;;14.11;58.64;100661.34;1764842;79;21713;-43
2021/04/14 10:46:10;;;;;;;4.75;1.75;;;;;;;14.08;58.98;100657.02;1763351;80;21162;-43
2021/04/14 10:48:45;;;;;;;7.10;2.50;;;;;;;14.05;58.85;100652.12;1750532;81;21118;-44
2021/04/14 10:51:22;;;;;;;1.15;0.88;;;;;;;14.11;59.36;100653.09;1748723;80;21143;-44
2021/04/14 10:53:54;;;;;;;3.55;1.60;;;;;;;14.16;59.16;100651.64;1759044;80;21298;-43
2021/04/14 10:56:26;;;;;;;1.72;1.57;;;;;;;14.27;59.63;100645.98;1743495;81;21134;-43
2021/04/14 10:58:55;;;;;;;0.45;0.45;;;;;;;14.40;59.90;100639.73;1759031;80;21164;-45
2021/04/14 11:01:46;;;;;;;1.05;0.80;;;;;;;14.50;59.43;100642.88;1736387;81;21106;-43
2021/04/14 11:04:22;;;;;;;0.47;0.47;;;;;;;14.60;58.24;100638.04;1730705;81;21694;-43
2021/04/14 11:06:54;;;;;;;1.32;0.90;;;;;;;14.69;58.06;100635.95;1747191;80;21159;-42
2021/04/14 11:09:22;;;;;;;6.75;1.25;;;;;;;14.73;57.91;100638.38;1760841;79;21585;-43
2021/04/14 11:11:51;;;;;;;1.05;1.00;;;;;;;14.75;59.54;100626.52;1754469;80;21164;-43
2021/04/14 11:14:19;;;;;;;2.12;1.15;;;;;;;14.82;58.43;100631.88;1758856;80;21559;-44
2021/04/14 11:16:49;;;;;;;0.80;0.78;;;;;;;14.88;58.19;100627.64;1769277;80;21147;-43
2021/04/14 11:19:22;;;;;;;0.65;0.55;;;;;;;14.97;58.29;100620.33;1729218;80;21609;-43
2021/04/14 11:22:11;;;;;;;4.20;1.67;;;;;;;15.08;57.53;100616.24;1756727;81;21134;-43
2021/04/14 11:24:48;;;;;;;2.22;1.45;;;;;;;15.22;57.83;100614.88;1754007;80;21392;-45
2021/04/14 11:27:27;;;;;;;0.37;0.30;;;;;;;15.37;56.98;100613.17;1758028;80;21110;-44
2021/04/14 11:30:15;;;;;;;2.85;0.78;;;;;;;15.59;56.81;100618.51;1753204;80;21164;-43
2021/04/14 11:32:55;;;;;;;0.75;0.68;;;;;;;15.86;56.25;100614.33;1764908;80;21125;-44
2021/04/14 11:35:40;;;;;;;0.40;0.20;;;;;;;15.96;54.08;100606.39;1744418;81;22304;-44
2021/04/14 11:38:28;;;;;;;1.00;0.65;;;;;;;15.68;54.21;100608.40;1708285;81;21538;-44
2021/04/14 11:40:57;;;;;;;2.60;1.05;;;;;;;15.40;54.27;100604.86;1724065;81;21122;-43
2021/04/14 11:43:35;;;;;;;1.32;0.88;;;;;;;15.16;55.10;100600.98;1721892;80;21135;-44
2021/04/14 11:46:31;;;;;;;1.30;1.10;;;;;;;15.04;55.76;100605.05;1772833;80;21170;-43
2021/04/14 11:49:07;;;;;;;1.00;0.82;;;;;;;14.93;55.77;100600.84;1762074;81;21641;-44
2021/04/14 11:51:42;;;;;;;3.10;0.72;;;;;;;14.85;56.14;100601.56;1770595;80;21139;-44
2021/04/14 11:54:32;;;;;;;0.42;0.30;;;;;;;14.80;57.25;100592.03;1782150;79;21130;-44